釧路空港の過去48時間の天気

釧路空港 (Kushiro)

現在時刻: 10/14 18:23 JST (10/14 09:23 UTC) 以下の時間は現地時間です。

過去48時間のMETAR気象情報
時間 風向 風速(m/s) 視程 気温(℃) 湿度(%) 気圧(hPa) 天気現象
14 18:00 北北西 3 10km以上 10 87 1018 弱いしゅう雨
14 17:00 北西 3 10km以上 10 87 1019
14 16:00 不定 1 10km以上 11 82 1019 弱いしゅう雨
14 15:00 2 10km以上 12 71 1020
14 14:00 3 10km以上 12 67 1021
14 13:00 4 10km以上 11 67 1021
14 12:00 南南西 4 10km以上 11 62 1022
14 11:00 6 10km以上 11 62 1023
14 10:00 南南東 4 10km以上 10 62 1023
14 09:00 不定 1 10km以上 9 71 1024
14 08:00 北北東 2 10km以上 5 81 1025
14 07:00 北北西 2 10km以上 5 87 1024
14 06:45 北西 2 10km以上 2 93 1024
13 20:00 北西 3 10km以上 4 75 1020
13 19:00 北西 2 10km以上 5 70 1020
13 18:00 5 10km以上 7 61 1018
13 17:00 7 10km以上 8 61 1015
13 16:00 11 10km以上 9 53 1013
13 15:00 11 10km以上 10 58 1012
13 14:00 11 10km以上 11 58 1010
13 13:00 13 10km以上 10 58 1008
13 12:00 11 10km以上 10 71 1007
13 11:00 11 10km以上 7 81 1007
13 10:00 10 10km以上 6 93 1007 弱いしゅう雨
13 09:10 北北東 7 10km以上 6 93 1007 しゅう雨
13 09:00 北北東 6 8000m 6 93 1007 しゅう雨
13 08:00 北北東 6 7000m 6 93 1008 しゅう雨
13 07:00 北北東 9 8000m 6 93 1007 しゅう雨
13 06:45 9 6000m 6 93 1008 しゅう雨
12 20:00 北北東 4 10km以上 9 93 1020 弱いしゅう雨
12 19:00 北東 3 10km以上 10 87 1020 弱いしゅう雨
RJCK 140900Z 33005KT 9999 -SHRA FEW008 SCT015 BKN025 10/08 Q1018
RJCK 140800Z 32005KT 9999 FEW020 BKN030 10/08 Q1019
RJCK 140700Z VRB01KT 9999 -SHRA FEW005 SCT015 BKN020 11/08 Q1019
RJCK 140600Z 18004KT 9999 FEW020 BKN030 12/07 Q1020
RJCK 140500Z 18006KT 140V220 9999 FEW020 BKN030 12/06 Q1021
RJCK 140400Z 18007KT 150V260 9999 FEW020 BKN035 11/05 Q1021
RJCK 140300Z 20008KT 160V220 9999 FEW020 BKN035 11/04 Q1022
RJCK 140200Z 17011KT 9999 FEW020 BKN035 11/04 Q1023
RJCK 140100Z 16008KT 140V200 9999 FEW020 SCT035 BKN/// 10/03 Q1023
RJCK 140000Z VRB02KT 9999 FEW030 BKN/// 09/04 Q1024
RJCK 132300Z 02003KT 9999 FEW020 BKN/// 05/02 Q1025
RJCK 132200Z 33003KT 9999 FEW020 BKN/// 05/03 Q1024
RJCK 132145Z 31003KT 9999 FEW002 BKN/// 02/01 Q1024 RMK 1ST002 A3026
RJCK 131100Z 32006KT 9999 FEW030 04/M00 Q1020
RJCK 131000Z 32003KT 9999 FEW030 05/M00 Q1020
RJCK 130900Z 36010KT 9999 FEW030 07/M00 Q1018
RJCK 130800Z 36014KT 9999 FEW030 08/01 Q1015
RJCK 130700Z 36022KT 9999 FEW030 09/00 Q1013
RJCK 130600Z 35022G35KT 9999 FEW030 10/02 Q1012
RJCK 130500Z 35022G32KT 9999 FEW030 11/03 Q1010
RJCK 130400Z 36026G42KT 9999 FEW030 10/02 Q1008
RJCK 130300Z 01022G33KT 9999 FEW020 SCT/// 10/05 Q1007
RJCK 130200Z 01021G34KT 9999 FEW015 SCT025 BKN050 07/04 Q1007
RJCK 130100Z 01019KT 9999 -SHRA FEW008 BKN015 BKN025 06/05 Q1007
RJCK 130010Z 02013KT 9999 SHRA FEW005 BKN010 BKN020 06/05 Q1007 RMK 1ST005 5ST010 6CU020 A2976
RJCK 130000Z 02012KT 8000 SHRA FEW005 BKN008 BKN020 06/05 Q1007
RJCK 122300Z 03012KT 7000 SHRA FEW005 BKN008 BKN020 06/05 Q1008
RJCK 122200Z 02017G32KT 8000 SHRA FEW005 BKN008 BKN020 06/05 Q1007
RJCK 122145Z 01018G28KT 6000 SHRA FEW005 BKN008 BKN020 06/05 Q1008 RMK 1ST005 5ST008 6CU020 A2977
RJCK 121100Z 02007KT 9999 -SHRA FEW015 BKN035 BKN060 09/08 Q1020
RJCK 121000Z 05006KT 9999 -SHRA FEW020 BKN035 10/08 Q1020